Time;durP1;ratioP1;P1;durP2;ratioP2;P2;SDS_P1;SDS_P2;PMS_P1;PMS_P2;Temp;Humidity;BMP_temperature;BMP_pressure;BME280_temperature;BME280_humidity;BME280_pressure;Samples;Min_cycle;Max_cycle;Signal;HPM_P1;HPM_P2
2022/05/19 00:00:11;;;;;;;5.60;5.07;;;;;;;18.73;69.69;101550.69;6107109;23;20025;-81
2022/05/19 00:02:36;;;;;;;5.60;5.30;;;;;;;18.69;70.00;101550.84;6106940;23;20012;-81
2022/05/19 00:05:02;;;;;;;5.45;5.03;;;;;;;18.67;70.79;101544.78;6106193;23;20060;-81
2022/05/19 00:07:27;;;;;;;5.35;4.90;;;;;;;18.62;70.65;101542.28;6106532;23;20088;-81
2022/05/19 00:09:52;;;;;;;5.57;4.93;;;;;;;18.61;70.99;101545.84;6106000;23;20033;-81
2022/05/19 00:12:20;;;;;;;5.50;5.10;;;;;;;18.55;72.07;101535.50;6108068;23;20457;-81
2022/05/19 00:14:46;;;;;;;5.63;5.25;;;;;;;18.50;72.96;101534.78;6108951;23;20009;-81
2022/05/19 00:17:11;;;;;;;5.65;5.18;;;;;;;18.44;72.55;101530.59;6108149;23;20468;-81
2022/05/19 00:19:37;;;;;;;5.90;5.45;;;;;;;18.41;71.77;101531.56;6108048;23;20009;-81
2022/05/19 00:22:02;;;;;;;5.85;5.45;;;;;;;18.38;72.32;101534.31;6108253;23;20045;-81
2022/05/19 00:24:28;;;;;;;5.53;5.13;;;;;;;18.37;71.53;101532.59;6108908;23;20433;-81
2022/05/19 00:26:54;;;;;;;5.75;5.45;;;;;;;18.32;72.71;101537.16;6108186;23;20016;-81
2022/05/19 00:29:19;;;;;;;5.75;5.45;;;;;;;18.24;72.44;101534.81;6108068;23;20013;-81
2022/05/19 00:31:45;;;;;;;6.38;5.90;;;;;;;18.21;72.89;101534.03;6108364;23;20088;-81
2022/05/19 00:34:10;;;;;;;6.90;6.30;;;;;;;18.17;73.24;101530.63;6107967;23;20016;-81
2022/05/19 00:36:36;;;;;;;5.53;5.18;;;;;;;18.12;73.47;101529.94;6107677;23;20096;-81
2022/05/19 00:39:01;;;;;;;6.07;5.60;;;;;;;18.06;73.58;101528.38;6107531;23;20029;-81
2022/05/19 00:41:26;;;;;;;6.20;5.70;;;;;;;18.04;73.78;101519.63;6107588;23;20395;-81
2022/05/19 00:44:04;;;;;;;6.10;5.55;;;;;;;18.01;73.90;101522.38;6131601;23;20468;-81
2022/05/19 00:46:46;;;;;;;5.63;5.28;;;;;;;17.98;75.09;101529.53;6107580;23;20008;-81
2022/05/19 00:49:25;;;;;;;5.53;5.13;;;;;;;17.95;74.57;101530.50;6131656;23;20039;-81
2022/05/19 00:51:53;;;;;;;6.15;5.75;;;;;;;17.92;74.51;101525.34;6107551;23;20060;-81
2022/05/19 00:54:26;;;;;;;6.30;5.88;;;;;;;17.89;73.29;101528.06;6131382;23;20485;-81
2022/05/19 00:57:02;;;;;;;6.07;5.75;;;;;;;17.89;73.63;101525.41;6106722;23;20006;-81
2022/05/19 00:59:38;;;;;;;6.97;6.47;;;;;;;17.88;74.90;101529.81;6107098;23;20009;-81
2022/05/19 01:02:06;;;;;;;6.57;6.07;;;;;;;17.85;74.80;101529.06;6107100;23;20058;-81
2022/05/19 01:04:55;;;;;;;7.38;6.68;;;;;;;17.82;74.14;101529.16;6106998;23;20056;-81
2022/05/19 01:07:24;;;;;;;6.32;5.90;;;;;;;17.79;74.59;101531.91;6107162;23;20187;-81
2022/05/19 01:09:51;;;;;;;6.93;5.85;;;;;;;17.72;74.51;101529.50;6106818;23;20425;-81
2022/05/19 01:12:16;;;;;;;7.05;6.20;;;;;;;17.72;75.03;101529.50;6106557;23;20001;-81
2022/05/19 01:14:43;;;;;;;7.18;6.53;;;;;;;17.70;75.52;101531.31;6107049;23;19997;-81
2022/05/19 01:17:08;;;;;;;6.32;5.63;;;;;;;17.68;75.13;101526.97;6107372;23;20005;-81
2022/05/19 01:19:40;;;;;;;6.38;5.85;;;;;;;17.66;75.47;101520.91;6106599;23;20001;-81
2022/05/19 01:22:32;;;;;;;6.68;6.07;;;;;;;17.64;74.93;101520.94;6130553;23;20060;-81
2022/05/19 01:25:09;;;;;;;6.25;5.95;;;;;;;17.62;75.64;101517.47;6157741;23;20467;-81
2022/05/19 01:27:35;;;;;;;6.18;5.78;;;;;;;17.58;74.54;101518.50;6107911;23;20005;-81
2022/05/19 01:30:01;;;;;;;6.78;6.20;;;;;;;17.53;74.16;101517.78;6107288;23;20477;-81
2022/05/19 01:32:28;;;;;;;6.57;6.22;;;;;;;17.54;74.24;101514.22;6107488;23;20437;-81
2022/05/19 01:34:54;;;;;;;6.88;6.22;;;;;;;17.55;74.54;101518.59;6107211;23;20429;-81
2022/05/19 01:37:20;;;;;;;6.72;6.22;;;;;;;17.55;75.39;101516.81;6106717;23;20071;-81
2022/05/19 01:39:49;;;;;;;6.45;6.05;;;;;;;17.55;74.39;101518.59;6106838;23;20365;-81
2022/05/19 01:42:40;;;;;;;6.03;5.53;;;;;;;17.52;74.76;101508.13;6106976;23;20029;-80
2022/05/19 01:45:27;;;;;;;6.03;5.53;;;;;;;17.51;74.20;101509.06;6106747;23;20016;-81
2022/05/19 01:47:54;;;;;;;6.43;5.93;;;;;;;17.52;74.91;101510.75;6131217;23;20016;-81
2022/05/19 01:50:48;;;;;;;6.32;6.03;;;;;;;17.48;74.37;101509.13;6106877;23;20489;-81
2022/05/19 01:53:28;;;;;;;5.82;5.32;;;;;;;17.39;74.83;101516.44;6089850;23;20028;-81
2022/05/19 01:56:00;;;;;;;6.13;5.70;;;;;;;17.37;74.18;101515.63;6107162;23;20011;-81
2022/05/19 01:58:26;;;;;;;5.93;5.53;;;;;;;17.39;74.37;101516.44;6107539;23;20453;-81
2022/05/19 02:00:55;;;;;;;5.70;5.28;;;;;;;17.45;74.00;101509.22;6131613;23;20013;-81
2022/05/19 02:03:35;;;;;;;5.55;5.10;;;;;;;17.48;74.31;101517.06;6107352;23;20041;-81
2022/05/19 02:06:15;;;;;;;10.48;5.57;;;;;;;17.50;73.96;101515.25;6130950;23;20013;-81
2022/05/19 02:08:48;;;;;;;5.68;5.28;;;;;;;17.49;74.10;101510.88;6107158;23;20186;-81
2022/05/19 02:11:20;;;;;;;6.30;5.82;;;;;;;17.48;74.73;101509.13;6106522;23;20012;-81
2022/05/19 02:13:46;;;;;;;5.88;5.55;;;;;;;17.47;74.72;101513.56;6107178;23;20051;-81
2022/05/19 02:16:13;;;;;;;5.60;5.07;;;;;;;17.44;74.51;101512.78;6106642;23;20365;-81
2022/05/19 02:18:39;;;;;;;5.15;4.85;;;;;;;17.40;74.65;101504.97;6107012;23;20084;-81
2022/05/19 02:21:05;;;;;;;6.40;5.93;;;;;;;17.42;74.60;101504.91;6106570;23;19997;-81
2022/05/19 02:23:32;;;;;;;6.20;5.80;;;;;;;17.42;74.78;101510.19;6130994;23;20063;-81
2022/05/19 02:25:57;;;;;;;5.85;5.35;;;;;;;17.41;75.00;101503.22;6130982;23;20002;-81
2022/05/19 02:28:27;;;;;;;5.70;5.30;;;;;;;17.39;74.08;101500.59;6107161;23;20575;-81
2022/05/19 02:30:54;;;;;;;5.00;4.70;;;;;;;17.42;74.82;101504.06;6130891;23;20002;-81
2022/05/19 02:33:19;;;;;;;6.05;5.32;;;;;;;17.40;74.55;101502.31;6106241;23;20088;-81
2022/05/19 02:35:45;;;;;;;5.97;5.47;;;;;;;17.45;73.68;101501.31;6105969;23;20393;-81
2022/05/19 02:38:12;;;;;;;5.53;5.00;;;;;;;17.42;75.30;101493.50;6106638;23;20005;-81
2022/05/19 02:40:38;;;;;;;5.68;5.38;;;;;;;17.39;74.35;101495.31;6106861;23;20001;-81
2022/05/19 02:43:04;;;;;;;6.07;5.57;;;;;;;17.39;74.32;101500.59;6106797;23;20034;-81
2022/05/19 02:45:30;;;;;;;5.30;5.00;;;;;;;17.37;74.40;101499.78;6106764;23;20013;-81
2022/05/19 02:47:56;;;;;;;5.47;4.97;;;;;;;17.36;73.94;101490.13;6107009;23;20355;-81
2022/05/19 02:50:22;;;;;;;5.55;5.15;;;;;;;17.40;74.41;101497.03;6106664;23;20449;-81
2022/05/19 02:52:48;;;;;;;6.07;5.68;;;;;;;17.40;74.29;101497.03;6105965;23;20009;-81
2022/05/19 02:55:14;;;;;;;5.85;4.88;;;;;;;17.40;73.77;101496.19;6106428;23;20012;-81
2022/05/19 02:57:40;;;;;;;5.30;5.00;;;;;;;17.42;74.67;101490.84;6106457;23;20005;-81
2022/05/19 03:00:09;;;;;;;6.97;6.30;;;;;;;17.41;73.58;101492.66;6106749;23;19998;-81
2022/05/19 03:02:34;;;;;;;6.47;5.95;;;;;;;17.41;74.49;101484.72;6131963;23;20433;-81
2022/05/19 03:05:00;;;;;;;5.63;5.10;;;;;;;17.37;74.51;101486.59;6106884;23;20011;-81
2022/05/19 03:07:25;;;;;;;5.70;5.20;;;;;;;17.36;73.61;101490.13;6107239;23;20213;-81
2022/05/19 03:09:50;;;;;;;5.78;5.47;;;;;;;17.38;74.63;101488.31;6106877;23;20033;-81
2022/05/19 03:12:16;;;;;;;5.78;5.28;;;;;;;17.36;74.48;101490.13;6107095;23;20010;-81
2022/05/19 03:14:42;;;;;;;5.22;4.82;;;;;;;17.34;75.00;101485.81;6132103;23;20032;-81
2022/05/19 03:17:08;;;;;;;5.65;5.03;;;;;;;17.34;74.49;101486.69;6106547;23;20006;-81
2022/05/19 03:19:34;;;;;;;5.38;5.07;;;;;;;17.34;74.58;101484.06;6106841;23;20560;-81
2022/05/19 03:21:59;;;;;;;5.53;5.13;;;;;;;17.27;75.37;101490.41;6106606;23;20028;-81
2022/05/19 03:24:24;;;;;;;5.93;5.43;;;;;;;17.22;75.77;101479.16;6106935;23;20064;-81
2022/05/19 03:26:50;;;;;;;5.50;5.07;;;;;;;17.19;75.51;101487.16;6107217;23;20158;-81
2022/05/19 03:29:15;;;;;;;5.55;5.15;;;;;;;17.17;75.20;101489.00;6131211;23;20085;-81
2022/05/19 03:31:41;;;;;;;5.88;5.53;;;;;;;17.17;75.86;101496.91;6106922;23;20006;-81
2022/05/19 03:34:06;;;;;;;6.40;6.00;;;;;;;17.14;74.86;101484.69;6107109;23;20384;-81
2022/05/19 03:36:31;;;;;;;5.60;5.25;;;;;;;17.17;76.46;101489.00;6106698;23;20016;-81
2022/05/19 03:38:57;;;;;;;5.72;5.43;;;;;;;17.12;76.49;101493.53;6106814;23;20009;-81
2022/05/19 03:41:22;;;;;;;6.22;5.70;;;;;;;17.09;76.28;101491.00;6131401;23;20029;-81
2022/05/19 03:43:48;;;;;;;5.72;5.43;;;;;;;17.04;76.89;101484.09;6106630;23;20052;-81
2022/05/19 03:46:13;;;;;;;6.43;6.03;;;;;;;17.01;76.88;101484.16;6107817;23;20005;-81
2022/05/19 03:48:39;;;;;;;6.47;6.00;;;;;;;16.96;76.64;101488.75;6109370;23;20434;-80
2022/05/19 03:51:09;;;;;;;5.70;5.40;;;;;;;16.94;76.09;101487.91;6109216;23;20006;-81
2022/05/19 03:53:35;;;;;;;7.43;6.72;;;;;;;16.93;76.85;101491.47;6108617;23;20005;-81
2022/05/19 03:56:00;;;;;;;6.70;6.20;;;;;;;16.93;77.20;101491.47;6108826;23;20088;-81
2022/05/19 03:58:26;;;;;;;6.93;6.25;;;;;;;16.94;77.23;101492.34;6108490;23;20493;-81
2022/05/19 04:00:51;;;;;;;7.45;6.10;;;;;;;16.89;76.95;101487.19;6133879;23;20441;-81
2022/05/19 04:03:17;;;;;;;6.88;6.43;;;;;;;16.89;76.94;101480.16;6108681;23;20429;-81
2022/05/19 04:05:42;;;;;;;6.97;6.35;;;;;;;16.90;76.37;101486.28;6108533;23;20036;-81
2022/05/19 04:08:07;;;;;;;6.65;6.22;;;;;;;16.91;76.33;101477.47;6108887;23;20001;-81
2022/05/19 04:10:33;;;;;;;6.20;5.80;;;;;;;16.89;76.62;101481.91;6132369;23;20344;-77
2022/05/19 04:12:59;;;;;;;6.55;5.95;;;;;;;16.88;76.88;101482.81;6132910;23;20032;-79
2022/05/19 04:15:25;;;;;;;6.65;6.18;;;;;;;16.88;77.02;101486.31;6132710;23;20433;-78
2022/05/19 04:17:50;;;;;;;6.15;5.85;;;;;;;16.89;76.41;101485.44;6108384;23;20234;-80
2022/05/19 04:20:16;;;;;;;6.25;5.75;;;;;;;16.88;76.72;101485.44;6108143;23;20433;-79
2022/05/19 04:22:42;;;;;;;7.47;6.93;;;;;;;16.90;76.66;101494.19;6107663;23;20005;-79
2022/05/19 04:25:09;;;;;;;6.53;5.93;;;;;;;16.92;76.44;101489.75;6107509;23;20065;-79
2022/05/19 04:27:35;;;;;;;6.10;5.70;;;;;;;16.91;76.45;101488.00;6108465;23;20056;-80
2022/05/19 04:30:00;;;;;;;6.00;5.60;;;;;;;16.93;76.49;101486.19;6107827;23;20006;-79
2022/05/19 04:32:26;;;;;;;7.28;6.45;;;;;;;16.99;76.55;101491.28;6107530;23;20438;-79
2022/05/19 04:34:51;;;;;;;6.60;6.10;;;;;;;17.01;76.74;101489.44;6132318;23;20384;-79
2022/05/19 04:37:17;;;;;;;6.90;6.53;;;;;;;17.02;76.54;101492.97;6108084;23;20009;-78
2022/05/19 04:39:42;;;;;;;6.40;6.00;;;;;;;17.04;76.15;101488.50;6118722;23;20091;-76
2022/05/19 04:42:10;;;;;;;6.47;6.00;;;;;;;17.08;76.19;101489.28;6134629;23;20005;-77
2022/05/19 04:44:35;;;;;;;7.07;6.03;;;;;;;17.06;76.87;101492.81;6158845;23;20387;-77
2022/05/19 04:47:01;;;;;;;6.78;6.35;;;;;;;17.13;76.29;101495.28;6159291;23;20005;-77
2022/05/19 04:49:27;;;;;;;6.68;5.95;;;;;;;17.17;76.31;101504.84;6134549;23;20408;-77
2022/05/19 04:51:52;;;;;;;6.57;6.05;;;;;;;17.20;75.80;101488.88;6134690;23;20036;-77
2022/05/19 04:54:18;;;;;;;6.00;5.45;;;;;;;17.22;76.12;101492.38;6134541;23;20093;-77
2022/05/19 04:56:43;;;;;;;6.57;6.07;;;;;;;17.28;75.94;101492.16;6159146;23;20035;-76
2022/05/19 04:59:14;;;;;;;6.95;6.35;;;;;;;17.32;75.99;101485.00;6134719;23;20293;-77
2022/05/19 05:01:41;;;;;;;7.28;6.25;;;;;;;17.35;76.36;101498.09;6164313;23;20009;-79
2022/05/19 05:04:06;;;;;;;7.05;6.20;;;;;;;17.42;75.84;101498.78;6139956;23;20437;-79
2022/05/19 05:06:32;;;;;;;6.50;6.00;;;;;;;17.47;75.87;101502.13;6140726;23;20084;-79
2022/05/19 05:08:58;;;;;;;7.57;5.80;;;;;;;17.53;75.67;101499.28;6165255;23;20096;-80
2022/05/19 05:11:23;;;;;;;6.53;6.05;;;;;;;17.57;74.58;101503.56;6140470;23;20036;-80
2022/05/19 05:13:49;;;;;;;6.35;5.90;;;;;;;17.62;73.98;101492.84;6140074;23;20025;-79
2022/05/19 05:16:14;;;;;;;6.70;6.00;;;;;;;17.70;74.17;101504.88;6165172;23;20080;-79
2022/05/19 05:18:40;;;;;;;6.93;6.13;;;;;;;17.74;74.46;101498.56;6140200;23;20048;-78
2022/05/19 05:21:06;;;;;;;6.20;5.80;;;;;;;17.82;73.27;101508.00;6140425;23;20345;-79
2022/05/19 05:23:31;;;;;;;6.47;5.90;;;;;;;17.87;73.85;101496.41;6140393;23;20005;-80
2022/05/19 05:25:57;;;;;;;6.07;5.60;;;;;;;17.92;72.73;101504.19;6165300;23;20467;-80
2022/05/19 05:28:22;;;;;;;5.90;5.47;;;;;;;17.94;73.20;101497.06;6140141;23;20057;-79
2022/05/19 05:30:49;;;;;;;5.93;5.40;;;;;;;17.98;71.44;101493.41;6140731;23;20009;-80
2022/05/19 05:33:15;;;;;;;5.97;5.68;;;;;;;18.02;72.53;101502.94;6140880;23;20005;-79
2022/05/19 05:35:41;;;;;;;6.22;5.93;;;;;;;18.02;71.80;101497.66;6140538;23;20393;-80
2022/05/19 05:38:07;;;;;;;5.53;5.22;;;;;;;18.04;71.32;101498.47;6140323;23;20005;-80
2022/05/19 05:40:34;;;;;;;6.43;5.88;;;;;;;18.07;71.87;101498.38;6139958;23;20432;-79
2022/05/19 05:43:04;;;;;;;6.43;5.85;;;;;;;18.12;70.70;101502.63;6139890;23;20004;-79
2022/05/19 05:45:30;;;;;;;5.70;5.30;;;;;;;18.12;70.14;101494.69;6139341;23;20005;-79
2022/05/19 05:47:55;;;;;;;5.03;4.70;;;;;;;18.24;70.46;101502.19;6139111;23;20088;-78
2022/05/19 05:50:20;;;;;;;8.35;5.45;;;;;;;18.27;70.22;101499.47;6139629;23;20092;-79
2022/05/19 05:52:46;;;;;;;6.65;5.90;;;;;;;18.28;70.57;101501.16;6140574;23;20009;-79
2022/05/19 05:55:11;;;;;;;5.55;5.10;;;;;;;18.25;71.67;101503.94;6165267;23;20024;-80
2022/05/19 05:57:36;;;;;;;6.22;5.60;;;;;;;18.29;69.93;101502.06;6141307;23;20064;-80
2022/05/19 06:00:04;;;;;;;7.68;5.32;;;;;;;18.31;70.85;101506.38;6139767;23;20033;-80
2022/05/19 06:02:29;;;;;;;5.05;4.68;;;;;;;18.35;70.26;101507.97;6138379;23;20003;-80
2022/05/19 06:04:55;;;;;;;5.30;4.80;;;;;;;18.41;70.24;101497.16;6163171;23;20405;-79
2022/05/19 06:07:20;;;;;;;5.50;5.10;;;;;;;18.50;71.30;101506.56;6138891;23;20013;-81
2022/05/19 06:09:46;;;;;;;5.18;4.88;;;;;;;18.56;69.64;101497.53;6139021;23;20016;-81
2022/05/19 06:12:11;;;;;;;6.72;4.70;;;;;;;18.67;68.55;101511.22;6140787;23;19997;-79
2022/05/19 06:14:37;;;;;;;4.53;4.25;;;;;;;18.67;68.01;101503.28;6138675;23;20080;-79
2022/05/19 06:17:02;;;;;;;5.18;4.70;;;;;;;18.68;68.47;101499.72;6139069;23;20084;-80
2022/05/19 06:19:28;;;;;;;6.57;4.93;;;;;;;18.74;68.17;101494.19;6138407;23;20483;-80
2022/05/19 06:21:53;;;;;;;4.63;4.22;;;;;;;18.80;68.18;101497.53;6137066;23;20084;-80
2022/05/19 06:24:18;;;;;;;5.68;5.32;;;;;;;18.87;66.88;101502.53;6138726;23;20004;-81
2022/05/19 06:26:44;;;;;;;6.63;4.55;;;;;;;18.87;68.19;101505.19;6163126;23;20001;-80
2022/05/19 06:29:10;;;;;;;5.05;4.65;;;;;;;18.94;66.15;101500.56;6138318;23;20076;-81
2022/05/19 06:31:36;;;;;;;4.85;4.53;;;;;;;19.11;66.59;101493.75;6137793;23;20496;-80
2022/05/19 06:34:02;;;;;;;4.70;4.30;;;;;;;19.07;67.60;101500.94;6188493;23;20008;-81
2022/05/19 06:36:28;;;;;;;5.07;4.57;;;;;;;19.18;65.09;101487.25;6137566;23;20005;-81
2022/05/19 06:38:53;;;;;;;4.70;4.35;;;;;;;19.26;65.72;101485.16;6163287;23;20459;-80
2022/05/19 06:44:04;;;;;;;7.40;4.25;;;;;;;19.39;66.14;101485.56;6168278;23;20028;-81
2022/05/19 06:46:29;;;;;;;5.00;4.60;;;;;;;19.47;66.78;101474.63;6137630;23;20031;-79
2022/05/19 06:48:55;;;;;;;6.25;3.83;;;;;;;19.42;66.19;101470.38;6162851;23;20301;-78
2022/05/19 06:51:20;;;;;;;4.50;4.07;;;;;;;19.53;66.23;101471.72;6135413;23;20013;-77
2022/05/19 06:53:45;;;;;;;4.50;4.10;;;;;;;19.55;66.17;101462.81;6135283;23;20047;-79
2022/05/19 06:56:12;;;;;;;4.28;3.92;;;;;;;19.74;63.86;101464.66;6135116;23;20005;-78
2022/05/19 06:58:38;;;;;;;4.22;3.92;;;;;;;19.84;63.75;101470.47;6135822;23;20063;-77
2022/05/19 07:01:03;;;;;;;5.35;4.22;;;;;;;19.73;64.61;101455.00;6135035;23;20000;-78
2022/05/19 07:03:29;;;;;;;3.97;3.67;;;;;;;19.73;65.83;101469.09;6135318;23;20425;-78
2022/05/19 07:06:05;;;;;;;6.82;3.75;;;;;;;19.73;65.13;101469.09;6135138;23;20001;-78
2022/05/19 07:08:31;;;;;;;3.85;3.63;;;;;;;19.82;65.26;101467.03;6160238;23;20015;-76
2022/05/19 07:10:57;;;;;;;4.00;3.55;;;;;;;19.97;62.42;101466.34;6159883;23;20064;-79
2022/05/19 07:13:22;;;;;;;3.50;3.30;;;;;;;20.14;63.76;101467.41;6159550;23;20001;-79
2022/05/19 07:15:48;;;;;;;3.95;3.65;;;;;;;20.06;65.42;101460.66;6134476;23;20079;-77
2022/05/19 07:18:13;;;;;;;3.45;3.25;;;;;;;20.33;61.35;101468.31;6135322;23;20009;-78
2022/05/19 07:20:44;;;;;;;4.00;3.55;;;;;;;20.64;60.68;101458.94;6136556;23;20040;-79
2022/05/19 07:23:13;;;;;;;3.42;3.22;;;;;;;20.75;59.54;101464.66;6139189;23;20009;-79
2022/05/19 07:25:39;;;;;;;6.40;3.20;;;;;;;20.90;60.91;101472.81;6137708;23;20005;-78
2022/05/19 07:28:04;;;;;;;3.13;3.00;;;;;;;21.22;57.04;101465.09;6136675;23;20059;-79
2022/05/19 07:30:30;;;;;;;3.10;2.80;;;;;;;20.97;59.47;101447.72;6135780;23;20005;-78
2022/05/19 07:32:55;;;;;;;3.58;3.13;;;;;;;20.92;60.39;101455.03;6136404;23;20009;-78
2022/05/19 07:35:21;;;;;;;5.32;3.13;;;;;;;20.89;59.10;101455.19;6136824;23;20008;-76
2022/05/19 07:37:47;;;;;;;5.28;2.80;;;;;;;21.14;57.39;101454.00;6136898;23;20051;-78
2022/05/19 07:40:13;;;;;;;3.20;2.90;;;;;;;21.15;59.18;101450.41;6137185;23;20082;-78
2022/05/19 07:42:39;;;;;;;3.38;3.15;;;;;;;21.04;59.46;101443.81;6137251;23;20492;-79
2022/05/19 07:45:05;;;;;;;3.83;3.13;;;;;;;21.23;58.51;101446.44;6136982;23;20009;-78
2022/05/19 07:47:32;;;;;;;3.58;3.28;;;;;;;21.13;58.63;101436.34;6137277;23;20004;-77
2022/05/19 07:49:57;;;;;;;3.60;2.80;;;;;;;21.13;56.75;101446.97;6160496;23;20000;-77
2022/05/19 07:52:24;;;;;;;3.28;3.08;;;;;;;21.24;56.50;101455.25;6135561;23;20063;-78
2022/05/19 07:54:49;;;;;;;4.20;3.40;;;;;;;21.26;57.13;101442.78;6136803;23;20461;-79
2022/05/19 07:57:14;;;;;;;3.35;3.05;;;;;;;21.18;55.92;101434.31;6161569;23;20005;-77
2022/05/19 07:59:40;;;;;;;3.63;2.88;;;;;;;21.43;55.61;101444.56;6136164;23;20075;-78
2022/05/19 08:02:07;;;;;;;3.13;2.92;;;;;;;21.62;55.29;101444.53;6136789;23;20059;-79
2022/05/19 08:04:32;;;;;;;4.40;2.28;;;;;;;21.77;53.88;101448.22;6135797;23;20012;-79
2022/05/19 08:06:58;;;;;;;2.85;2.17;;;;;;;21.55;54.37;101445.78;6136038;23;20008;-79
2022/05/19 08:12:14;;;;;;;3.00;2.80;;;;;;;21.90;52.08;101443.13;6164396;23;20055;-77
2022/05/19 08:17:24;;;;;;;2.63;2.42;;;;;;;21.70;54.10;101442.34;6164573;23;20380;-78
2022/05/19 08:19:49;;;;;;;2.88;2.67;;;;;;;21.73;53.88;101452.84;6135755;23;20009;-79
2022/05/19 08:22:14;;;;;;;4.30;2.55;;;;;;;21.77;52.18;101433.13;6136194;23;20037;-78
2022/05/19 08:24:41;;;;;;;4.55;2.28;;;;;;;22.09;51.15;101427.91;6136055;23;20016;-78
2022/05/19 08:27:06;;;;;;;2.47;2.38;;;;;;;22.45;50.23;101436.69;6135539;23;20005;-79
2022/05/19 08:29:33;;;;;;;3.05;2.35;;;;;;;22.54;49.30;101428.19;6159937;23;20005;-78
2022/05/19 08:31:59;;;;;;;3.03;2.75;;;;;;;22.68;48.11;101430.09;6135679;23;20453;-77
2022/05/19 08:34:24;;;;;;;3.95;2.33;;;;;;;22.50;49.19;101437.31;6135451;23;20012;-79
2022/05/19 08:36:50;;;;;;;3.47;2.60;;;;;;;22.36;50.68;101429.19;6160410;23;20040;-79
2022/05/19 08:39:18;;;;;;;3.53;3.13;;;;;;;22.52;48.19;101424.75;6135819;23;20087;-77
2022/05/19 08:41:48;;;;;;;2.40;2.20;;;;;;;22.69;47.81;101442.47;6136394;23;20491;-77
2022/05/19 08:44:16;;;;;;;2.60;2.40;;;;;;;23.05;46.58;101435.16;6136111;23;20456;-77
2022/05/19 08:46:45;;;;;;;2.55;2.35;;;;;;;23.09;47.20;101437.53;6160807;23;20085;-78
2022/05/19 08:49:47;;;;;;;2.00;1.90;;;;;;;23.07;46.35;101426.13;6160574;23;20013;-79
2022/05/19 08:52:18;;;;;;;2.65;2.55;;;;;;;22.98;46.92;101425.81;6136278;23;20033;-79
2022/05/19 08:54:47;;;;;;;2.63;2.30;;;;;;;23.08;47.08;101427.84;6136084;23;20433;-79
2022/05/19 08:57:23;;;;;;;4.28;2.63;;;;;;;22.87;48.79;101434.41;6136121;23;20011;-79
2022/05/19 09:00:01;;;;;;;2.78;2.17;;;;;;;22.88;47.94;101431.66;6136652;23;20052;-80
2022/05/19 09:02:35;;;;;;;5.30;3.38;;;;;;;23.02;47.21;101430.00;6136119;23;20344;-78
2022/05/19 09:05:12;;;;;;;2.50;2.40;;;;;;;23.04;46.65;101423.66;6135511;23;20005;-79
2022/05/19 09:08:00;;;;;;;3.55;2.60;;;;;;;23.00;47.12;101430.09;6186966;23;20000;-79
2022/05/19 09:10:35;;;;;;;3.47;2.30;;;;;;;23.04;47.84;101420.09;6103121;23;20012;-79
2022/05/19 09:13:21;;;;;;;2.20;2.10;;;;;;;23.16;48.24;101414.09;6160828;23;20004;-79
2022/05/19 09:15:47;;;;;;;2.90;2.50;;;;;;;23.09;47.26;101404.72;6135987;23;20016;-79
2022/05/19 09:18:15;;;;;;;2.97;2.58;;;;;;;23.02;49.53;101401.56;6135807;23;20095;-78
2022/05/19 09:20:44;;;;;;;2.28;2.17;;;;;;;23.16;47.86;101397.25;6135330;23;20395;-78
2022/05/19 09:23:10;;;;;;;2.60;2.50;;;;;;;23.09;47.73;101391.41;6135119;23;20550;-78
2022/05/19 09:25:40;;;;;;;2.90;2.70;;;;;;;23.06;47.38;101395.09;6136148;23;20112;-78
2022/05/19 09:28:05;;;;;;;2.80;2.70;;;;;;;22.91;48.46;101394.19;6135713;23;20029;-78
2022/05/19 09:30:40;;;;;;;3.08;2.67;;;;;;;22.94;47.90;101393.16;6134896;23;20072;-79
2022/05/19 09:33:15;;;;;;;2.97;2.70;;;;;;;22.99;49.02;101396.41;6136653;23;20021;-79
2022/05/19 09:35:58;;;;;;;4.47;2.50;;;;;;;23.15;46.08;101400.88;6136187;23;20009;-78
2022/05/19 09:38:33;;;;;;;2.75;2.55;;;;;;;23.35;45.76;101389.91;6136402;23;20040;-79
2022/05/19 09:41:07;;;;;;;3.33;2.70;;;;;;;23.33;47.50;101383.81;6160268;23;20007;-76
2022/05/19 09:43:37;;;;;;;3.53;2.55;;;;;;;23.36;47.13;101391.63;6134639;23;20095;-79
2022/05/19 09:46:14;;;;;;;3.33;2.40;;;;;;;23.37;47.89;101385.34;6135740;23;20004;-81
2022/05/19 09:49:01;;;;;;;2.30;2.20;;;;;;;23.60;46.70;101391.09;6135279;23;20429;-79
2022/05/19 09:51:48;;;;;;;3.15;2.55;;;;;;;23.93;44.18;101392.72;6135419;23;20009;-81
2022/05/19 09:54:14;;;;;;;2.25;2.05;;;;;;;24.11;43.48;101383.53;6136124;23;20005;-80
2022/05/19 09:56:51;;;;;;;2.33;2.15;;;;;;;24.07;44.03;101390.03;6161391;23;20009;-80
2022/05/19 09:59:21;;;;;;;2.25;2.05;;;;;;;24.08;45.76;101375.75;6136744;23;20015;-79
2022/05/19 10:01:49;;;;;;;2.53;2.42;;;;;;;24.06;43.64;101388.31;6136860;23;19997;-80
2022/05/19 10:04:37;;;;;;;2.22;2.13;;;;;;;24.16;42.46;101387.72;6136634;23;20079;-80
2022/05/19 10:07:19;;;;;;;2.80;2.30;;;;;;;24.01;43.43;101379.75;6137621;23;20088;-79
2022/05/19 10:09:47;;;;;;;2.58;2.47;;;;;;;24.09;43.65;101377.47;6136966;23;20091;-80
2022/05/19 10:12:14;;;;;;;2.10;1.90;;;;;;;24.27;43.13;101374.59;6135813;23;20043;-79
2022/05/19 10:14:40;;;;;;;2.28;2.13;;;;;;;24.14;44.22;101375.34;6135637;23;20001;-79
2022/05/19 10:17:15;;;;;;;2.40;2.30;;;;;;;24.20;43.97;101378.59;6135235;23;20006;-79
2022/05/19 10:19:40;;;;;;;2.70;2.50;;;;;;;24.29;43.49;101375.34;6134742;23;20005;-79
2022/05/19 10:22:24;;;;;;;2.78;2.58;;;;;;;24.15;44.28;101370.88;6159241;23;20005;-81
2022/05/19 10:24:59;;;;;;;2.42;2.22;;;;;;;24.19;42.58;101372.41;6158571;23;20036;-80
2022/05/19 10:33:37;;;;;;;2.65;2.30;;;;;;;24.22;43.66;101363.34;6163167;23;20019;-78
2022/05/19 10:36:16;;;;;;;4.30;2.25;;;;;;;24.21;43.22;101359.78;6159752;23;20341;-80
2022/05/19 10:38:43;;;;;;;2.30;2.20;;;;;;;24.20;45.16;101350.09;6160023;23;20041;-78
2022/05/19 10:41:34;;;;;;;2.60;2.40;;;;;;;24.26;43.87;101346.19;6185965;23;20012;-80
2022/05/19 10:44:36;;;;;;;3.15;2.10;;;;;;;24.34;45.87;101349.22;6160979;23;20012;-79
2022/05/19 10:47:22;;;;;;;3.20;2.47;;;;;;;24.50;44.12;101348.22;6135920;23;20653;-78
2022/05/19 10:49:57;;;;;;;2.72;2.53;;;;;;;24.51;42.25;101341.91;6160378;23;20031;-79
2022/05/19 10:52:37;;;;;;;3.80;2.22;;;;;;;24.56;42.07;101339.81;6160331;23;20020;-79
2022/05/19 10:55:15;;;;;;;2.55;2.35;;;;;;;24.52;43.21;101327.63;6160333;23;20005;-79
2022/05/19 10:57:59;;;;;;;2.15;2.05;;;;;;;24.48;46.13;101326.94;6136899;23;20005;-80
2022/05/19 11:00:35;;;;;;;3.35;2.67;;;;;;;24.53;44.05;101318.63;6135814;23;20456;-79
2022/05/19 11:03:13;;;;;;;2.65;2.40;;;;;;;24.48;46.88;101314.44;6136409;23;20008;-80
2022/05/19 11:05:51;;;;;;;2.67;2.28;;;;;;;24.78;43.53;101316.09;6161246;23;20009;-80
2022/05/19 11:08:47;;;;;;;2.53;2.33;;;;;;;25.20;40.44;101307.97;6135401;23;20055;-79
2022/05/19 11:11:29;;;;;;;2.42;2.33;;;;;;;25.16;41.32;101308.28;6159931;23;20012;-79
2022/05/19 11:14:04;;;;;;;2.25;2.03;;;;;;;25.17;41.47;101301.97;6134625;23;20344;-79
2022/05/19 11:17:03;;;;;;;5.25;2.60;;;;;;;25.19;41.10;101303.56;6159701;23;20027;-79
2022/05/19 11:19:43;;;;;;;2.25;2.15;;;;;;;25.15;40.13;101286.03;6159402;23;20092;-78
2022/05/19 11:22:15;;;;;;;2.55;2.40;;;;;;;25.38;40.46;101297.00;6136382;23;20124;-78
2022/05/19 11:27:38;;;;;;;2.30;2.10;;;;;;;25.41;39.83;101275.38;6164312;23;20015;-80
2022/05/19 11:30:18;;;;;;;2.20;2.10;;;;;;;25.47;38.72;101289.19;6136285;23;20025;-79
2022/05/19 11:32:45;;;;;;;2.75;2.30;;;;;;;25.44;38.68;101275.16;6136450;23;20459;-78
2022/05/19 11:35:15;;;;;;;2.30;2.20;;;;;;;25.45;39.60;101272.38;6136127;23;20059;-79
2022/05/19 11:38:31;;;;;;;3.60;2.40;;;;;;;25.60;39.13;101258.91;6136827;23;20173;-79
2022/05/19 11:40:57;;;;;;;4.78;2.33;;;;;;;25.57;38.87;101269.81;6112247;23;20015;-79
2022/05/19 11:43:36;;;;;;;3.47;1.90;;;;;;;25.73;38.12;101254.38;6160603;23;20096;-79
2022/05/19 11:46:04;;;;;;;2.35;2.13;;;;;;;25.79;38.68;101258.44;6135159;23;20491;-79
2022/05/19 11:57:35;;;;;;;2.35;2.15;;;;;;;25.96;38.67;101230.47;6185961;23;20094;-80
2022/05/19 12:00:00;;;;;;;;;;;;;;;26.21;37.10;101226.88;6134545;23;20008;-79